Time;durP1;ratioP1;P1;durP2;ratioP2;P2;SDS_P1;SDS_P2;PMS_P1;PMS_P2;Temp;Humidity;BMP_temperature;BMP_pressure;BME280_temperature;BME280_humidity;BME280_pressure;Samples;Min_cycle;Max_cycle;Signal;HPM_P1;HPM_P2
2022/03/09 12:55:49;;;;;;;13.40;7.13;;;;;;;4.89;51.25;96903.47;5042629;28;20097;-62
2022/03/09 12:58:23;;;;;;;20.17;8.90;;;;;;;4.18;52.59;96889.84;5063745;28;20067;-62
2022/03/09 13:01:08;;;;;;;18.88;9.88;;;;;;;4.69;52.15;96883.94;5063579;28;20045;-63
2022/03/09 13:03:36;;;;;;;21.73;10.30;;;;;;;4.49;51.14;96813.47;5067165;28;20087;-56
2022/03/09 13:06:21;;;;;;;24.05;10.55;;;;;;;4.85;50.63;96864.13;5067029;28;20052;-63
2022/03/09 13:08:48;;;;;;;23.98;9.57;;;;;;;4.83;50.79;96897.41;5066889;28;20507;-63
2022/03/09 13:11:26;;;;;;;20.25;9.48;;;;;;;4.75;51.82;96875.50;5067024;28;20055;-63
2022/03/09 13:13:54;;;;;;;20.73;9.77;;;;;;;4.58;53.65;96885.50;5066883;28;20063;-62
2022/03/09 13:16:26;;;;;;;12.38;6.43;;;;;;;4.36;52.71;96901.50;5065686;28;20060;-62
2022/03/09 13:18:57;;;;;;;16.10;7.13;;;;;;;3.85;54.52;96897.16;5066380;28;20523;-57
2022/03/09 13:21:27;;;;;;;14.32;5.55;;;;;;;3.58;54.60;96908.56;5066787;28;20049;-60
2022/03/09 13:23:59;;;;;;;14.02;6.30;;;;;;;3.64;55.80;96900.94;5067038;28;20447;-62
2022/03/09 13:26:36;;;;;;;13.65;5.63;;;;;;;3.62;55.10;96887.59;5066496;28;20044;-57
2022/03/09 13:29:03;;;;;;;10.23;4.70;;;;;;;3.48;55.85;96908.13;5066756;28;20053;-62
2022/03/09 13:31:49;;;;;;;20.90;8.85;;;;;;;3.50;57.18;96903.91;5066958;28;20426;-62
2022/03/09 13:34:23;;;;;;;14.07;6.88;;;;;;;2.82;58.35;96901.38;5066921;28;20067;-58
2022/03/09 13:37:08;;;;;;;;;;;;;;;2.84;60.99;96910.06;5067071;28;20056;-56
2022/03/09 13:39:40;;;;;;;20.63;9.15;;;;;;;2.59;65.11;96919.88;5066029;28;20332;-55
2022/03/09 13:42:12;;;;;;;13.60;5.78;;;;;;;2.55;66.98;96904.44;5080925;28;20055;-59
2022/03/09 13:44:39;;;;;;;15.40;6.55;;;;;;;2.58;66.94;96901.06;5085120;28;20565;-62
2022/03/09 13:47:08;;;;;;;24.23;9.35;;;;;;;2.43;67.02;96898.84;5086156;28;20054;-60
2022/03/09 13:49:50;;;;;;;7.57;3.92;;;;;;;2.85;67.26;96906.19;5086381;28;20105;-55
2022/03/09 13:52:23;;;;;;;23.63;10.18;;;;;;;3.12;64.20;96911.28;5086285;28;20080;-54
2022/03/09 13:54:51;;;;;;;24.00;10.75;;;;;;;3.00;63.79;96843.56;5084972;28;20074;-57
2022/03/09 13:57:31;;;;;;;21.85;9.75;;;;;;;3.07;65.20;96908.72;5086553;28;20480;-60
2022/03/09 14:00:00;;;;;;;17.67;7.53;;;;;;;2.64;63.98;96910.75;5086533;28;20063;-54
2022/03/09 14:02:28;;;;;;;9.95;4.63;;;;;;;2.36;64.80;96914.91;5085348;28;20048;-59
2022/03/09 14:04:55;;;;;;;18.17;8.13;;;;;;;2.59;65.76;96913.63;5086328;28;20159;-60
2022/03/09 14:07:42;;;;;;;19.77;9.00;;;;;;;2.48;66.00;96907.66;5084838;28;20055;-55
2022/03/09 14:10:21;;;;;;;20.35;7.40;;;;;;;3.19;65.49;96928.03;5084077;28;20048;-60
2022/03/09 14:12:50;;;;;;;17.33;6.63;;;;;;;2.92;62.32;96854.53;5083743;28;20141;-55
2022/03/09 14:15:17;;;;;;;16.30;7.53;;;;;;;3.48;62.15;96925.34;5085823;28;20519;-61
2022/03/09 14:17:43;;;;;;;15.80;6.53;;;;;;;3.14;62.05;96925.47;5086426;28;20048;-61
2022/03/09 14:20:11;;;;;;;14.55;7.30;;;;;;;2.79;63.63;96927.44;5085646;28;20048;-55
2022/03/09 14:22:41;;;;;;;16.90;6.32;;;;;;;2.61;66.17;96930.50;5085853;28;20063;-61
2022/03/09 14:25:08;;;;;;;16.40;7.82;;;;;;;2.10;64.61;96935.94;5084303;28;20048;-60
2022/03/09 14:27:35;;;;;;;18.27;8.27;;;;;;;2.03;67.48;96922.75;5085682;28;20372;-60
2022/03/09 14:30:08;;;;;;;10.15;5.28;;;;;;;1.94;68.78;96918.38;5085657;28;20094;-55
2022/03/09 14:32:35;;;;;;;18.33;8.23;;;;;;;1.88;69.83;96919.66;5083955;28;20079;-55
2022/03/09 14:35:04;;;;;;;24.50;9.70;;;;;;;2.00;70.81;96919.84;5085758;28;20050;-55
2022/03/09 14:37:31;;;;;;;21.10;10.48;;;;;;;1.87;71.27;96907.13;5085078;28;20063;-55
2022/03/09 14:39:57;;;;;;;26.17;10.23;;;;;;;1.60;70.51;96833.69;5085635;28;20063;-55
2022/03/09 14:42:24;;;;;;;17.45;7.43;;;;;;;1.78;69.61;96888.00;5068264;28;20048;-60
2022/03/09 14:44:51;;;;;;;22.10;8.45;;;;;;;2.23;69.08;96927.59;5065371;28;20577;-54
2022/03/09 14:47:18;;;;;;;15.70;7.35;;;;;;;2.39;65.75;96925.19;5065347;28;20044;-60
2022/03/09 14:49:45;;;;;;;15.43;7.22;;;;;;;2.16;64.00;96871.81;5063776;28;20056;-55
2022/03/09 14:52:12;;;;;;;17.30;6.70;;;;;;;2.63;61.70;96915.41;5063631;28;20155;-55
2022/03/09 14:54:40;;;;;;;16.95;7.75;;;;;;;2.63;60.72;96920.03;5065021;28;20048;-55
2022/03/09 14:57:08;;;;;;;17.05;7.82;;;;;;;2.36;61.69;96876.63;5065178;28;20056;-60
2022/03/09 14:59:35;;;;;;;11.52;5.78;;;;;;;2.68;59.56;96903.47;5064777;28;20091;-60
2022/03/09 15:02:02;;;;;;;15.43;6.95;;;;;;;3.01;59.07;96920.97;5063706;28;20063;-61
2022/03/09 15:04:31;;;;;;;17.42;8.25;;;;;;;3.10;58.15;96921.75;5065069;28;20062;-61
2022/03/09 15:06:57;;;;;;;16.33;7.97;;;;;;;2.84;57.77;96869.03;5064616;28;20071;-61
2022/03/09 15:09:24;;;;;;;16.15;6.85;;;;;;;3.45;56.41;96926.00;5063545;28;20534;-61
2022/03/09 15:11:52;;;;;;;14.45;6.53;;;;;;;3.51;55.16;96927.41;5063150;28;20049;-55
2022/03/09 15:14:18;;;;;;;14.55;6.63;;;;;;;3.57;54.01;96928.06;5063131;28;20048;-55
2022/03/09 15:16:45;;;;;;;15.38;6.43;;;;;;;3.10;53.69;96936.25;5062849;28;20139;-54
2022/03/09 15:19:12;;;;;;;11.18;5.53;;;;;;;2.45;53.38;96880.97;5064314;28;20075;-61
2022/03/09 15:21:39;;;;;;;10.23;4.55;;;;;;;2.89;54.30;96945.47;5063091;28;20051;-60
2022/03/09 15:24:06;;;;;;;9.55;4.22;;;;;;;2.75;60.27;96928.41;5062545;28;20055;-57
2022/03/09 15:26:33;;;;;;;17.55;7.97;;;;;;;2.55;68.07;96918.13;5064387;28;20056;-60
2022/03/09 15:28:59;;;;;;;16.58;8.63;;;;;;;2.67;69.59;96962.03;5064198;28;20143;-56
2022/03/09 15:31:26;;;;;;;11.75;4.43;;;;;;;2.33;71.51;96954.63;5064005;28;20563;-61
2022/03/09 15:33:53;;;;;;;15.93;7.10;;;;;;;1.85;72.29;96901.19;5064136;28;20515;-60
2022/03/09 15:36:21;;;;;;;16.83;7.55;;;;;;;2.29;72.76;96969.25;5064085;28;20075;-61
2022/03/09 15:38:48;;;;;;;10.35;4.75;;;;;;;1.96;73.34;96978.97;5064078;28;20060;-54
2022/03/09 15:41:15;;;;;;;12.40;5.50;;;;;;;1.88;74.30;96979.75;5070165;28;20052;-61
2022/03/09 15:43:42;;;;;;;12.60;4.57;;;;;;;1.56;74.72;96978.94;5084337;28;20150;-59
2022/03/09 15:46:09;;;;;;;15.07;6.57;;;;;;;1.09;75.91;96903.28;5084737;28;20055;-54
2022/03/09 15:48:36;;;;;;;10.48;4.18;;;;;;;1.32;80.80;96992.16;5084363;28;20055;-61
2022/03/09 15:51:04;;;;;;;15.13;5.90;;;;;;;0.78;83.95;96970.63;5082764;28;20825;-61
2022/03/09 15:53:32;;;;;;;17.65;7.70;;;;;;;0.74;86.84;96972.38;5082699;28;20495;-60
2022/03/09 15:55:59;;;;;;;21.65;7.78;;;;;;;0.72;88.20;97003.75;5083874;28;20216;-60
2022/03/09 15:58:27;;;;;;;4.38;2.20;;;;;;;0.24;89.12;96989.09;5084181;28;20054;-60
2022/03/09 16:00:54;;;;;;;15.13;5.38;;;;;;;0.17;92.40;97016.72;5083692;28;20058;-60
2022/03/09 16:03:21;;;;;;;12.35;4.15;;;;;;;0.22;93.76;96994.03;5082624;28;20144;-55
2022/03/09 16:05:50;;;;;;;14.90;5.68;;;;;;;0.40;92.78;97007.50;5082988;28;20522;-57
2022/03/09 16:08:18;;;;;;;13.90;5.78;;;;;;;-0.14;88.43;96972.16;5082875;28;20063;-60
2022/03/09 16:10:45;;;;;;;13.35;5.82;;;;;;;0.13;84.75;96963.19;5082538;28;20502;-55
2022/03/09 16:13:13;;;;;;;13.50;6.32;;;;;;;-0.02;81.94;96934.38;5082180;28;20052;-60
2022/03/09 16:15:40;;;;;;;11.48;4.70;;;;;;;0.60;77.77;97026.09;5082111;28;20104;-61
2022/03/09 16:18:08;;;;;;;14.68;6.28;;;;;;;0.72;82.39;97023.66;5083385;28;20056;-57
2022/03/09 16:20:37;;;;;;;12.60;4.95;;;;;;;0.76;77.68;97019.19;5083592;28;20048;-55
2022/03/09 16:23:05;;;;;;;5.07;2.33;;;;;;;0.66;73.60;97054.88;5083215;28;20059;-54
2022/03/09 16:25:32;;;;;;;12.02;5.00;;;;;;;0.09;73.34;96954.00;5084004;28;20467;-56
2022/03/09 16:27:59;;;;;;;17.45;6.45;;;;;;;0.79;75.31;97034.94;5083727;28;20056;-60
2022/03/09 16:30:27;;;;;;;13.88;6.28;;;;;;;0.98;75.75;97032.84;5083038;28;20063;-54
2022/03/09 16:32:54;;;;;;;11.32;5.03;;;;;;;1.00;74.69;97041.53;5083472;28;20434;-60
2022/03/09 16:35:21;;;;;;;16.63;6.53;;;;;;;1.12;73.93;97039.03;5083146;28;20051;-57
2022/03/09 16:37:48;;;;;;;15.93;6.82;;;;;;;1.41;73.26;97052.22;5083585;28;20055;-56
2022/03/09 16:40:17;;;;;;;10.60;3.75;;;;;;;1.18;67.89;97010.53;5083364;28;20570;-57
2022/03/09 16:42:48;;;;;;;8.57;3.75;;;;;;;1.40;67.48;97061.53;5064270;28;20497;-54
2022/03/09 16:45:17;;;;;;;7.43;3.10;;;;;;;1.14;66.92;97064.09;5062930;28;20499;-55
2022/03/09 16:47:45;;;;;;;10.50;3.40;;;;;;;1.19;67.67;97077.59;5063960;28;20049;-61
2022/03/09 16:50:14;;;;;;;8.40;3.53;;;;;;;1.02;68.45;97065.75;5063625;28;20048;-57
2022/03/09 16:52:42;;;;;;;11.18;4.75;;;;;;;1.02;68.20;97069.28;5063427;28;20064;-55
2022/03/09 16:55:10;;;;;;;8.00;3.17;;;;;;;0.81;68.24;97042.78;5063189;28;20048;-61
2022/03/09 16:57:37;;;;;;;8.65;3.65;;;;;;;0.84;69.32;97078.44;5062961;28;20053;-60
2022/03/09 17:00:08;;;;;;;10.88;4.30;;;;;;;0.75;68.96;97077.56;5063428;28;20075;-55
2022/03/09 17:02:34;;;;;;;9.40;4.28;;;;;;;0.69;70.63;97078.78;5061804;28;20048;-55
2022/03/09 17:05:03;;;;;;;9.68;4.20;;;;;;;0.66;70.62;97084.03;5063392;28;20052;-60
2022/03/09 17:07:30;;;;;;;10.82;4.43;;;;;;;0.89;70.88;97081.03;5063127;28;20045;-55
2022/03/09 17:09:57;;;;;;;8.75;4.45;;;;;;;0.99;70.37;97083.56;5063167;28;20075;-56
2022/03/09 17:12:26;;;;;;;12.55;5.78;;;;;;;0.69;70.50;97084.25;5061217;28;20049;-55
2022/03/09 17:14:52;;;;;;;12.60;5.32;;;;;;;0.51;71.08;97027.94;5062846;28;20052;-61
2022/03/09 17:17:19;;;;;;;8.60;3.90;;;;;;;1.02;69.18;97087.56;5061521;28;20075;-55
2022/03/09 17:19:52;;;;;;;;;;;;;;;0.88;67.67;97084.91;5063647;28;20136;-60
2022/03/09 17:22:20;;;;;;;14.23;4.25;;;;;;;0.63;70.28;97093.66;5062766;28;19924;-60
2022/03/09 17:24:47;;;;;;;8.75;3.33;;;;;;;0.09;68.79;97050.09;5062616;28;20048;-55
2022/03/09 17:27:13;;;;;;;10.70;4.55;;;;;;;0.09;70.14;97016.63;5061403;28;20072;-55
2022/03/09 17:29:43;;;;;;;9.60;3.97;;;;;;;0.68;67.28;97103.63;5061575;28;20434;-60
2022/03/09 17:32:10;;;;;;;8.90;4.82;;;;;;;0.87;65.89;97093.38;5061444;28;20076;-55
2022/03/09 17:34:37;;;;;;;6.72;2.60;;;;;;;0.72;65.17;97110.88;5061318;28;20049;-60
2022/03/09 17:37:04;;;;;;;7.32;3.47;;;;;;;0.70;66.17;97115.81;5061623;28;20144;-55
2022/03/09 17:39:30;;;;;;;8.18;3.72;;;;;;;0.50;68.62;97116.25;5062461;28;20055;-56
2022/03/09 17:41:57;;;;;;;14.27;4.53;;;;;;;0.44;68.91;97120.22;5075317;28;20063;-54
2022/03/09 17:44:24;;;;;;;12.85;5.82;;;;;;;0.59;68.92;97122.59;5083302;28;20062;-56
2022/03/09 17:46:50;;;;;;;18.00;5.65;;;;;;;0.51;69.84;97126.03;5083127;28;20048;-55
2022/03/09 17:49:17;;;;;;;13.18;5.57;;;;;;;0.63;68.73;97139.97;5085059;28;20058;-60
2022/03/09 17:51:44;;;;;;;13.25;5.25;;;;;;;0.34;69.47;97128.56;5086272;28;20048;-60
2022/03/09 17:54:11;;;;;;;17.13;7.25;;;;;;;0.37;68.79;97130.69;5086868;28;20052;-60
2022/03/09 17:56:38;;;;;;;18.90;7.72;;;;;;;-0.41;69.79;97004.84;5084053;28;20526;-55
2022/03/09 17:59:07;;;;;;;25.58;12.43;;;;;;;0.54;70.83;97130.88;5086387;28;20170;-54
2022/03/09 18:01:34;;;;;;;23.08;10.00;;;;;;;0.71;68.89;97133.78;5085002;28;20057;-55
2022/03/09 18:04:01;;;;;;;10.88;3.78;;;;;;;0.37;69.91;97136.13;5084217;28;20510;-60
2022/03/09 18:06:28;;;;;;;26.15;9.50;;;;;;;0.60;71.41;97137.03;5085974;28;20051;-60
2022/03/09 18:08:54;;;;;;;16.42;6.90;;;;;;;0.71;69.87;97147.41;5084249;28;20059;-54
2022/03/09 18:11:21;;;;;;;14.40;7.07;;;;;;;0.37;72.40;97147.03;5086010;28;20054;-60
2022/03/09 18:13:56;;;;;;;12.65;5.82;;;;;;;-0.54;70.62;97036.34;5086090;28;20371;-60
2022/03/09 18:16:23;;;;;;;14.40;6.53;;;;;;;0.34;68.60;97144.91;5084778;28;20056;-55
2022/03/09 18:18:50;;;;;;;16.52;7.47;;;;;;;0.45;69.22;97138.16;5086046;28;20511;-60
2022/03/09 18:21:17;;;;;;;6.57;3.42;;;;;;;0.34;69.87;97142.19;5085749;28;20040;-60
2022/03/09 18:23:45;;;;;;;13.18;6.13;;;;;;;0.08;68.10;97149.22;5084665;28;20051;-59
2022/03/09 18:26:12;;;;;;;17.13;5.85;;;;;;;-0.57;68.60;97066.84;5084435;28;20143;-60
2022/03/09 18:28:38;;;;;;;12.32;5.47;;;;;;;0.03;67.73;97152.06;5084562;28;20086;-55
2022/03/09 18:31:05;;;;;;;9.48;2.30;;;;;;;0.04;67.47;97148.22;5084118;28;20514;-60
2022/03/09 18:33:32;;;;;;;17.45;7.30;;;;;;;-0.78;68.88;97013.13;5084361;28;20044;-60
2022/03/09 18:35:58;;;;;;;21.55;8.45;;;;;;;0.28;69.14;97159.75;5085914;28;20478;-60
2022/03/09 18:38:25;;;;;;;16.75;7.65;;;;;;;0.18;67.14;97149.03;5085354;28;20064;-56
2022/03/09 18:40:52;;;;;;;19.98;6.05;;;;;;;0.01;65.19;97159.72;5082424;28;20045;-54
2022/03/09 18:43:19;;;;;;;14.73;6.72;;;;;;;0.03;65.71;97161.00;5065680;28;20071;-61
2022/03/09 18:45:45;;;;;;;16.38;7.43;;;;;;;-2.77;67.13;96723.78;5065007;28;20059;-60
2022/03/09 18:48:12;;;;;;;29.02;11.65;;;;;;;0.00;68.94;97133.59;5064919;28;20052;-54
2022/03/09 18:50:39;;;;;;;26.92;11.10;;;;;;;0.34;69.25;97161.25;5065043;28;20062;-55
2022/03/09 18:53:05;;;;;;;35.38;14.35;;;;;;;0.50;69.98;97168.03;5064903;28;20934;-55
2022/03/09 18:55:32;;;;;;;29.77;14.35;;;;;;;0.49;69.85;97171.84;5065011;28;20456;-55
2022/03/09 18:57:59;;;;;;;32.25;11.75;;;;;;;0.32;69.21;97144.41;5064554;28;20075;-60
2022/03/09 19:00:25;;;;;;;36.85;12.50;;;;;;;0.11;68.31;97121.41;5064127;28;20520;-55
2022/03/09 19:02:52;;;;;;;29.40;10.65;;;;;;;0.58;69.36;97169.22;5065065;28;20053;-60
2022/03/09 19:05:20;;;;;;;31.50;11.57;;;;;;;0.30;69.82;97113.94;5065232;28;20045;-60
2022/03/09 19:07:47;;;;;;;38.83;15.65;;;;;;;0.64;69.07;97179.72;5063455;28;20402;-60
2022/03/09 19:10:14;;;;;;;37.10;14.15;;;;;;;0.59;69.92;97190.72;5065074;28;20057;-55
2022/03/09 19:12:43;;;;;;;32.15;12.27;;;;;;;0.65;69.96;97169.66;5064903;28;20059;-60
2022/03/09 19:15:10;;;;;;;27.13;11.23;;;;;;;0.37;69.62;97155.22;5064610;28;20505;-55
2022/03/09 19:17:38;;;;;;;25.48;9.98;;;;;;;0.61;70.89;97183.06;5064804;28;20071;-60
2022/03/09 19:20:05;;;;;;;28.08;10.93;;;;;;;0.50;71.21;97178.94;5064675;28;20066;-61
2022/03/09 19:22:32;;;;;;;23.30;10.15;;;;;;;0.37;70.66;97177.00;5063066;28;20137;-55
2022/03/09 19:24:59;;;;;;;29.40;10.38;;;;;;;0.31;70.78;97183.66;5064951;28;20051;-60
2022/03/09 19:27:25;;;;;;;19.92;8.23;;;;;;;-0.23;72.07;97186.25;5064394;28;20059;-55
2022/03/09 19:29:52;;;;;;;22.23;8.88;;;;;;;-0.14;72.46;97195.34;5064272;28;20904;-56
2022/03/09 19:32:20;;;;;;;21.02;8.10;;;;;;;-0.18;71.00;97175.31;5064038;28;20055;-55
2022/03/09 19:34:50;;;;;;;15.50;6.75;;;;;;;-0.29;71.12;97198.34;5064444;28;20061;-54
2022/03/09 19:37:17;;;;;;;22.35;7.68;;;;;;;-1.01;70.08;97087.47;5062454;28;20052;-56
2022/03/09 19:39:44;;;;;;;22.17;8.18;;;;;;;-0.30;68.94;97199.47;5063045;28;20118;-54
2022/03/09 19:42:12;;;;;;;16.65;6.22;;;;;;;-0.52;68.83;97204.72;5077707;28;20146;-55
2022/03/09 19:44:39;;;;;;;18.10;6.45;;;;;;;-0.22;69.72;97209.63;4657651;28;20516;-55
2022/03/09 19:47:05;;;;;;;15.38;6.28;;;;;;;-0.25;68.63;97194.72;4672294;28;20054;-59
2022/03/09 19:49:32;;;;;;;16.02;6.70;;;;;;;-0.21;69.57;97203.13;5031490;28;20059;-62
2022/03/09 19:51:59;;;;;;;15.77;6.47;;;;;;;-0.09;69.66;97206.16;5042155;28;20108;-55
2022/03/09 19:54:27;;;;;;;14.90;5.97;;;;;;;-0.71;67.97;97160.41;5043543;28;20053;-59
2022/03/09 19:56:56;;;;;;;9.18;3.33;;;;;;;-1.00;68.46;97148.88;5043271;28;20591;-60
2022/03/09 19:59:24;;;;;;;14.48;5.25;;;;;;;-1.20;68.22;97122.00;5044058;28;20487;-54
2022/03/09 20:01:50;;;;;;;16.75;6.95;;;;;;;-0.49;67.81;97218.50;5043878;28;20135;-59
2022/03/09 20:04:18;;;;;;;9.57;4.40;;;;;;;-0.52;67.67;97226.47;5043733;28;20045;-60
2022/03/09 20:06:49;;;;;;;10.23;4.25;;;;;;;-0.59;67.51;97226.03;5042198;28;20497;-54
2022/03/09 20:09:16;;;;;;;12.60;5.10;;;;;;;-1.47;66.21;97114.47;5042349;28;20076;-57
2022/03/09 20:11:43;;;;;;;13.82;5.80;;;;;;;-0.69;68.09;97231.59;5043252;28;20056;-60
2022/03/09 20:14:10;;;;;;;12.98;4.85;;;;;;;-0.64;67.47;97239.69;5042200;28;20049;-55
2022/03/09 20:16:37;;;;;;;13.70;5.35;;;;;;;-0.88;68.05;97222.63;5043507;28;20045;-60
2022/03/09 20:19:04;;;;;;;12.10;4.80;;;;;;;-0.64;67.01;97239.69;5043311;28;20045;-60
2022/03/09 20:21:31;;;;;;;12.68;4.90;;;;;;;-0.61;65.50;97241.81;5044093;28;20454;-55
2022/03/09 20:23:58;;;;;;;7.60;4.22;;;;;;;-0.87;64.45;97243.28;5044017;28;20111;-54
2022/03/09 20:26:24;;;;;;;11.25;4.20;;;;;;;-0.81;64.90;97258.44;5043602;28;20494;-62
2022/03/09 20:28:53;;;;;;;9.38;3.63;;;;;;;-0.97;63.32;97240.69;5043052;28;20074;-59
2022/03/09 20:31:20;;;;;;;13.23;3.30;;;;;;;-1.17;63.24;97219.22;5043258;28;20079;-61
2022/03/09 20:33:48;;;;;;;14.35;4.57;;;;;;;-0.95;64.07;97246.66;5041613;28;20048;-54
2022/03/09 20:36:15;;;;;;;10.65;4.22;;;;;;;-0.81;64.00;97245.66;5041825;28;20053;-59
2022/03/09 20:38:42;;;;;;;11.18;3.90;;;;;;;-0.96;63.52;97264.06;5041661;28;20056;-54
2022/03/09 20:41:08;;;;;;;9.85;3.80;;;;;;;-1.04;62.45;97240.28;5041754;28;20511;-59
2022/03/09 20:43:36;;;;;;;14.63;4.47;;;;;;;-1.25;63.27;97217.16;5043759;28;20056;-60
2022/03/09 20:46:02;;;;;;;8.50;2.85;;;;;;;-1.12;61.76;97258.00;5043050;28;20060;-54
2022/03/09 20:48:30;;;;;;;9.27;3.33;;;;;;;-3.88;62.76;96810.13;5041650;28;20053;-54
2022/03/09 20:50:57;;;;;;;15.57;4.35;;;;;;;-1.01;61.64;97262.22;5043173;28;20057;-59
2022/03/09 20:53:24;;;;;;;16.55;5.32;;;;;;;-0.98;61.96;97260.84;5042685;28;20446;-55
2022/03/09 20:55:50;;;;;;;6.75;3.10;;;;;;;-1.81;61.79;97132.81;5041428;28;20061;-54
2022/03/09 20:58:18;;;;;;;6.22;2.08;;;;;;;-1.38;62.01;97240.41;5043330;28;20053;-59
2022/03/09 21:00:44;;;;;;;7.22;2.50;;;;;;;-1.19;61.83;97259.47;5043099;28;20057;-59
2022/03/09 21:03:11;;;;;;;4.30;1.30;;;;;;;-1.22;60.62;97254.63;5042920;28;20428;-59
2022/03/09 21:05:43;;;;;;;7.70;2.28;;;;;;;-1.39;60.58;97243.41;5043601;28;20107;-55
2022/03/09 21:08:09;;;;;;;10.88;3.40;;;;;;;-1.25;60.95;97271.50;5043564;28;20060;-60
2022/03/09 21:10:39;;;;;;;19.58;4.47;;;;;;;-1.06;61.22;97269.63;5042020;28;20510;-54
2022/03/09 21:13:06;;;;;;;3.53;2.03;;;;;;;-1.13;60.49;97259.13;5042727;28;20048;-60
2022/03/09 21:15:33;;;;;;;8.38;2.30;;;;;;;-1.23;60.93;97269.31;5043114;28;20424;-55
2022/03/09 21:18:01;;;;;;;19.83;6.05;;;;;;;-1.40;61.86;97225.47;5041167;28;20060;-54
2022/03/09 21:20:27;;;;;;;20.27;7.47;;;;;;;-0.87;60.96;97263.13;5043160;28;20053;-60
2022/03/09 21:22:54;;;;;;;33.25;8.60;;;;;;;-0.94;61.05;97251.00;5044883;28;20053;-55
2022/03/09 21:25:23;;;;;;;43.13;12.90;;;;;;;-0.73;61.55;97274.91;5047073;28;20076;-56
2022/03/09 21:27:50;;;;;;;35.65;12.80;;;;;;;-0.57;62.69;97257.25;5047169;28;20055;-57
2022/03/09 21:30:19;;;;;;;15.32;5.40;;;;;;;-0.57;61.47;97261.91;5046677;28;20686;-60
2022/03/09 21:32:47;;;;;;;13.23;4.75;;;;;;;-0.49;62.48;97263.97;5046865;28;20060;-60
2022/03/09 21:35:21;;;;;;;10.85;4.40;;;;;;;-0.34;62.43;97266.44;5046686;28;20409;-60
2022/03/09 21:37:47;;;;;;;11.82;5.22;;;;;;;-0.18;62.15;97259.66;5046415;28;20412;-54
2022/03/09 21:40:14;;;;;;;17.38;5.50;;;;;;;-0.16;61.79;97265.63;5046108;28;20222;-59
2022/03/09 21:42:42;;;;;;;14.90;4.30;;;;;;;-0.20;60.84;97267.31;5046542;28;20098;-54
2022/03/09 21:45:10;;;;;;;11.57;3.95;;;;;;;-0.73;61.36;97201.50;5046373;28;20435;-56
2022/03/09 21:47:38;;;;;;;12.32;4.57;;;;;;;-0.17;62.20;97251.22;5046611;28;20053;-59
2022/03/09 21:50:06;;;;;;;11.63;5.65;;;;;;;-0.18;61.23;97248.78;5046640;28;20514;-62
2022/03/09 21:52:33;;;;;;;10.38;4.97;;;;;;;-0.14;60.79;97249.78;5046767;28;20053;-59
2022/03/09 21:54:59;;;;;;;20.48;6.80;;;;;;;-0.05;61.19;97248.03;5046622;28;20065;-60
2022/03/09 21:57:27;;;;;;;12.75;5.53;;;;;;;-0.20;61.79;97256.44;5044451;28;20149;-54
2022/03/09 21:59:53;;;;;;;3.70;1.95;;;;;;;-0.64;60.93;97245.94;5046216;28;20427;-59
2022/03/09 22:02:20;;;;;;;5.93;3.17;;;;;;;-0.88;62.04;97260.69;5044585;28;20057;-54
2022/03/09 22:04:48;;;;;;;7.57;2.78;;;;;;;-1.19;61.77;97199.69;5045836;28;20111;-57
2022/03/09 22:07:15;;;;;;;10.75;3.60;;;;;;;-1.00;62.19;97246.72;5045783;28;20048;-59
2022/03/09 22:09:42;;;;;;;6.55;2.67;;;;;;;-1.06;62.61;97245.19;5044220;28;20063;-62
2022/03/09 22:12:09;;;;;;;4.22;1.42;;;;;;;-1.33;63.88;97274.84;5044654;28;20550;-55
2022/03/09 22:14:35;;;;;;;4.30;2.00;;;;;;;-1.39;64.37;97254.28;5045560;28;20053;-55
2022/03/09 22:17:02;;;;;;;5.05;2.40;;;;;;;-1.33;64.25;97256.66;5044514;28;20438;-54
2022/03/09 22:19:29;;;;;;;5.45;2.63;;;;;;;-1.15;63.73;97249.63;5046113;28;20556;-59
2022/03/09 22:21:56;;;;;;;5.28;2.22;;;;;;;-1.35;63.52;97255.31;5045817;28;20049;-55
2022/03/09 22:24:23;;;;;;;4.13;2.33;;;;;;;-1.20;63.61;97257.84;5045676;28;20053;-56
2022/03/09 22:26:49;;;;;;;9.35;2.28;;;;;;;-1.78;64.68;97191.97;5045685;28;20049;-59
2022/03/09 22:29:16;;;;;;;4.85;2.15;;;;;;;-1.38;64.11;97250.44;5045448;28;20546;-59
2022/03/09 22:31:43;;;;;;;4.10;1.92;;;;;;;-1.44;63.21;97254.31;5045411;28;20052;-54
2022/03/09 22:34:12;;;;;;;6.70;1.90;;;;;;;-1.49;64.72;97247.06;5045035;28;20049;-60
2022/03/09 22:36:40;;;;;;;8.23;2.38;;;;;;;-1.57;64.59;97248.50;5044178;28;20060;-55
2022/03/09 22:39:25;;;;;;;3.13;1.58;;;;;;;-2.28;64.29;97149.91;5046064;28;20320;-59
2022/03/09 22:41:52;;;;;;;6.75;2.40;;;;;;;-2.16;64.79;97173.91;5045460;28;20053;-55
2022/03/09 22:44:19;;;;;;;6.07;2.55;;;;;;;-1.47;64.86;97252.19;5043857;28;20049;-59
2022/03/09 22:46:45;;;;;;;5.00;1.67;;;;;;;-1.58;64.01;97249.56;5044843;28;20526;-54
2022/03/09 22:49:15;;;;;;;11.73;3.33;;;;;;;-1.55;65.13;97250.91;5045388;28;20132;-59
2022/03/09 22:51:42;;;;;;;5.80;2.40;;;;;;;-1.64;64.79;97261.59;5045284;28;20052;-54
2022/03/09 22:54:09;;;;;;;9.80;3.47;;;;;;;-1.57;64.11;97253.09;5045069;28;20060;-54
2022/03/09 22:56:35;;;;;;;7.72;2.47;;;;;;;-1.61;64.91;97255.59;5044520;28;20048;-55
2022/03/09 22:59:02;;;;;;;9.02;2.65;;;;;;;-1.50;65.22;97264.41;5045500;28;20088;-54
2022/03/09 23:01:29;;;;;;;8.63;2.17;;;;;;;-1.52;64.30;97260.38;5045034;28;20561;-60
2022/03/09 23:03:57;;;;;;;17.75;4.32;;;;;;;-1.47;66.18;97249.47;5044821;28;20081;-58
2022/03/09 23:06:24;;;;;;;6.10;2.47;;;;;;;-2.01;66.09;97204.41;5043117;28;20049;-60
2022/03/09 23:08:51;;;;;;;7.10;2.63;;;;;;;-1.57;65.67;97259.34;5044745;28;20551;-56
2022/03/09 23:11:18;;;;;;;16.98;4.75;;;;;;;-1.84;66.79;97188.50;5043287;28;20504;-59
2022/03/09 23:13:45;;;;;;;18.67;3.83;;;;;;;-1.38;65.14;97255.88;5044691;28;20447;-60
2022/03/09 23:16:12;;;;;;;39.55;5.68;;;;;;;-1.50;65.96;97258.19;5044633;28;20080;-55
2022/03/09 23:18:39;;;;;;;8.48;2.83;;;;;;;-1.49;65.64;97255.19;5044615;28;20107;-54
2022/03/09 23:21:05;;;;;;;8.82;2.92;;;;;;;-1.57;65.30;97232.19;5044736;28;20055;-60
2022/03/09 23:23:32;;;;;;;6.28;2.35;;;;;;;-1.77;65.32;97188.97;5044869;28;20067;-54
2022/03/09 23:26:00;;;;;;;7.47;2.40;;;;;;;-1.19;64.72;97256.75;5043045;28;20071;-55
2022/03/09 23:28:27;;;;;;;13.18;4.47;;;;;;;-1.13;65.31;97261.00;5043078;28;20143;-59
2022/03/09 23:30:54;;;;;;;17.05;4.88;;;;;;;-1.45;65.92;97231.00;5044682;28;20045;-59
2022/03/09 23:33:21;;;;;;;4.28;2.67;;;;;;;-1.23;66.56;97274.75;5044472;28;20049;-54
2022/03/09 23:35:48;;;;;;;9.15;2.88;;;;;;;-1.34;67.20;97271.31;5044702;28;20053;-54
2022/03/09 23:38:14;;;;;;;9.70;3.70;;;;;;;-1.59;67.36;97239.00;5045016;28;20052;-55
2022/03/09 23:40:41;;;;;;;10.65;4.00;;;;;;;-1.31;67.09;97267.22;5043142;28;20061;-56
2022/03/09 23:43:08;;;;;;;12.50;4.30;;;;;;;-1.77;68.88;97210.69;5024542;28;20061;-54
2022/03/09 23:45:35;;;;;;;4.72;1.65;;;;;;;-1.45;67.81;97293.47;5024290;28;20054;-59
2022/03/09 23:48:03;;;;;;;9.13;2.35;;;;;;;-1.38;68.42;97283.03;5024281;28;20052;-54
2022/03/09 23:50:33;;;;;;;12.70;3.85;;;;;;;-1.49;67.52;97228.03;5022713;28;20111;-55
2022/03/09 23:53:00;;;;;;;13.27;4.47;;;;;;;-1.04;66.36;97272.88;5024047;28;20061;-58
2022/03/09 23:55:27;;;;;;;12.02;3.47;;;;;;;-1.00;66.66;97268.47;5024411;28;20542;-55
2022/03/09 23:57:53;;;;;;;7.05;2.53;;;;;;;-1.28;66.32;97272.88;5023670;28;20057;-54
